sensor_id;sensor_type;location;lat;lon;timestamp;temperature;humidity
48946;DHT22;34999;50.940;3.998;2023-05-19T00:00:54;8.80;99.90
48946;DHT22;34999;50.940;3.998;2023-05-19T00:03:24;8.70;99.90
48946;DHT22;34999;50.940;3.998;2023-05-19T00:05:53;8.70;99.90
48946;DHT22;34999;50.940;3.998;2023-05-19T00:08:23;8.70;99.90
48946;DHT22;34999;50.940;3.998;2023-05-19T00:10:52;8.70;99.90
48946;DHT22;34999;50.940;3.998;2023-05-19T00:13:20;8.70;99.90
48946;DHT22;34999;50.940;3.998;2023-05-19T00:15:50;8.60;99.90
48946;DHT22;34999;50.940;3.998;2023-05-19T00:18:18;8.60;99.90
48946;DHT22;34999;50.940;3.998;2023-05-19T00:20:47;8.60;99.90
48946;DHT22;34999;50.940;3.998;2023-05-19T00:23:15;8.50;99.90
48946;DHT22;34999;50.940;3.998;2023-05-19T00:25:45;8.50;99.90
48946;DHT22;34999;50.940;3.998;2023-05-19T00:28:13;8.50;99.90
48946;DHT22;34999;50.940;3.998;2023-05-19T00:30:41;8.40;99.90
48946;DHT22;34999;50.940;3.998;2023-05-19T00:33:09;8.40;99.90
48946;DHT22;34999;50.940;3.998;2023-05-19T00:35:38;8.30;99.90
48946;DHT22;34999;50.940;3.998;2023-05-19T00:38:07;8.30;99.90
48946;DHT22;34999;50.940;3.998;2023-05-19T00:40:35;8.30;99.90
48946;DHT22;34999;50.940;3.998;2023-05-19T00:43:05;8.30;99.90
48946;DHT22;34999;50.940;3.998;2023-05-19T00:45:34;8.20;99.90
48946;DHT22;34999;50.940;3.998;2023-05-19T00:48:02;8.20;99.90
48946;DHT22;34999;50.940;3.998;2023-05-19T00:50:31;8.20;99.90
48946;DHT22;34999;50.940;3.998;2023-05-19T00:53:00;8.20;99.90
48946;DHT22;34999;50.940;3.998;2023-05-19T00:55:30;8.20;99.90
48946;DHT22;34999;50.940;3.998;2023-05-19T00:57:58;8.20;99.90
48946;DHT22;34999;50.940;3.998;2023-05-19T01:00:29;8.20;99.90
48946;DHT22;34999;50.940;3.998;2023-05-19T01:05:47;8.00;99.90
48946;DHT22;34999;50.940;3.998;2023-05-19T01:08:15;8.00;99.90
48946;DHT22;34999;50.940;3.998;2023-05-19T01:10:43;8.00;99.90
48946;DHT22;34999;50.940;3.998;2023-05-19T01:13:12;8.00;99.90
48946;DHT22;34999;50.940;3.998;2023-05-19T01:15:55;7.90;99.90
48946;DHT22;34999;50.940;3.998;2023-05-19T01:18:29;7.90;99.90
48946;DHT22;34999;50.940;3.998;2023-05-19T01:21:08;7.90;99.90
48946;DHT22;34999;50.940;3.998;2023-05-19T01:23:48;7.90;99.90
48946;DHT22;34999;50.940;3.998;2023-05-19T01:26:34;7.90;99.90
48946;DHT22;34999;50.940;3.998;2023-05-19T01:29:16;7.90;99.90
48946;DHT22;34999;50.940;3.998;2023-05-19T01:31:58;7.80;99.90
48946;DHT22;34999;50.940;3.998;2023-05-19T01:34:27;7.80;99.90
48946;DHT22;34999;50.940;3.998;2023-05-19T01:36:57;7.80;99.90
48946;DHT22;34999;50.940;3.998;2023-05-19T01:39:27;7.80;99.90
48946;DHT22;34999;50.940;3.998;2023-05-19T01:41:57;7.70;99.90
48946;DHT22;34999;50.940;3.998;2023-05-19T01:44:25;7.70;99.90
48946;DHT22;34999;50.940;3.998;2023-05-19T01:46:56;7.70;99.90
48946;DHT22;34999;50.940;3.998;2023-05-19T01:49:24;7.70;99.90
48946;DHT22;34999;50.940;3.998;2023-05-19T01:51:53;7.70;99.90
48946;DHT22;34999;50.940;3.998;2023-05-19T01:54:23;7.60;99.90
48946;DHT22;34999;50.940;3.998;2023-05-19T01:56:56;7.60;99.90
48946;DHT22;34999;50.940;3.998;2023-05-19T02:02:25;7.50;99.90
48946;DHT22;34999;50.940;3.998;2023-05-19T02:05:00;7.50;99.90
48946;DHT22;34999;50.940;3.998;2023-05-19T02:07:36;7.50;99.90
48946;DHT22;34999;50.940;3.998;2023-05-19T02:10:12;7.50;99.90
48946;DHT22;34999;50.940;3.998;2023-05-19T02:12:42;7.40;99.90
48946;DHT22;34999;50.940;3.998;2023-05-19T02:15:15;7.40;99.90
48946;DHT22;34999;50.940;3.998;2023-05-19T02:17:45;7.40;99.90
48946;DHT22;34999;50.940;3.998;2023-05-19T02:20:18;7.40;99.90
48946;DHT22;34999;50.940;3.998;2023-05-19T02:22:48;7.40;99.90
48946;DHT22;34999;50.940;3.998;2023-05-19T02:25:16;7.40;99.90
48946;DHT22;34999;50.940;3.998;2023-05-19T02:27:45;7.30;99.90
48946;DHT22;34999;50.940;3.998;2023-05-19T02:30:14;7.30;99.90
48946;DHT22;34999;50.940;3.998;2023-05-19T02:32:44;7.30;99.90
48946;DHT22;34999;50.940;3.998;2023-05-19T02:35:13;7.30;99.90
48946;DHT22;34999;50.940;3.998;2023-05-19T02:37:41;7.30;99.90
48946;DHT22;34999;50.940;3.998;2023-05-19T02:40:10;7.30;99.90
48946;DHT22;34999;50.940;3.998;2023-05-19T02:42:38;7.20;99.90
48946;DHT22;34999;50.940;3.998;2023-05-19T02:45:07;7.20;99.90
48946;DHT22;34999;50.940;3.998;2023-05-19T02:47:35;7.20;99.90
48946;DHT22;34999;50.940;3.998;2023-05-19T02:50:07;7.10;99.90
48946;DHT22;34999;50.940;3.998;2023-05-19T02:52:35;7.00;99.90
48946;DHT22;34999;50.940;3.998;2023-05-19T02:55:04;7.00;99.90
48946;DHT22;34999;50.940;3.998;2023-05-19T02:57:34;7.00;99.90
48946;DHT22;34999;50.940;3.998;2023-05-19T03:00:03;7.00;99.90
48946;DHT22;34999;50.940;3.998;2023-05-19T03:02:32;7.10;99.90
48946;DHT22;34999;50.940;3.998;2023-05-19T03:05:01;7.10;99.90
48946;DHT22;34999;50.940;3.998;2023-05-19T03:07:31;7.10;99.90
48946;DHT22;34999;50.940;3.998;2023-05-19T03:09:59;7.00;99.90
48946;DHT22;34999;50.940;3.998;2023-05-19T03:12:29;7.10;99.90
48946;DHT22;34999;50.940;3.998;2023-05-19T03:14:58;7.00;99.90
48946;DHT22;34999;50.940;3.998;2023-05-19T03:17:26;7.00;99.90
48946;DHT22;34999;50.940;3.998;2023-05-19T03:20:00;7.00;99.90
48946;DHT22;34999;50.940;3.998;2023-05-19T03:22:28;7.00;99.90
48946;DHT22;34999;50.940;3.998;2023-05-19T03:24:57;6.90;99.90
48946;DHT22;34999;50.940;3.998;2023-05-19T03:27:26;6.80;99.90
48946;DHT22;34999;50.940;3.998;2023-05-19T03:29:54;6.80;99.90
48946;DHT22;34999;50.940;3.998;2023-05-19T03:32:22;6.70;99.90
48946;DHT22;34999;50.940;3.998;2023-05-19T03:34:51;6.70;99.90
48946;DHT22;34999;50.940;3.998;2023-05-19T03:37:19;6.70;99.90
48946;DHT22;34999;50.940;3.998;2023-05-19T03:39:47;6.80;99.90
48946;DHT22;34999;50.940;3.998;2023-05-19T03:42:17;6.90;99.90
48946;DHT22;34999;50.940;3.998;2023-05-19T03:44:45;6.90;99.90
48946;DHT22;34999;50.940;3.998;2023-05-19T03:47:14;6.90;99.90
48946;DHT22;34999;50.940;3.998;2023-05-19T03:49:42;6.90;99.90
48946;DHT22;34999;50.940;3.998;2023-05-19T03:52:11;6.90;99.90
48946;DHT22;34999;50.940;3.998;2023-05-19T03:54:39;6.80;99.90
48946;DHT22;34999;50.940;3.998;2023-05-19T03:57:08;6.80;99.90
48946;DHT22;34999;50.940;3.998;2023-05-19T03:59:38;6.90;99.90
48946;DHT22;34999;50.940;3.998;2023-05-19T04:02:07;6.80;99.90
48946;DHT22;34999;50.940;3.998;2023-05-19T04:04:35;6.80;99.90
48946;DHT22;34999;50.940;3.998;2023-05-19T04:07:04;6.80;99.90
48946;DHT22;34999;50.940;3.998;2023-05-19T04:09:33;6.80;99.90
48946;DHT22;34999;50.940;3.998;2023-05-19T04:12:01;6.90;99.90
48946;DHT22;34999;50.940;3.998;2023-05-19T04:14:29;6.80;99.90
48946;DHT22;34999;50.940;3.998;2023-05-19T04:16:59;6.80;99.90
48946;DHT22;34999;50.940;3.998;2023-05-19T04:19:27;6.80;99.90
48946;DHT22;34999;50.940;3.998;2023-05-19T04:21:56;6.90;99.90
48946;DHT22;34999;50.940;3.998;2023-05-19T04:24:24;6.80;99.90
48946;DHT22;34999;50.940;3.998;2023-05-19T04:26:52;6.90;99.90
48946;DHT22;34999;50.940;3.998;2023-05-19T04:29:20;7.00;99.90
48946;DHT22;34999;50.940;3.998;2023-05-19T04:31:49;7.00;99.90
48946;DHT22;34999;50.940;3.998;2023-05-19T04:34:20;7.10;99.90
48946;DHT22;34999;50.940;3.998;2023-05-19T04:36:48;7.10;99.90
48946;DHT22;34999;50.940;3.998;2023-05-19T04:39:19;7.10;99.90
48946;DHT22;34999;50.940;3.998;2023-05-19T04:41:47;7.10;99.90
48946;DHT22;34999;50.940;3.998;2023-05-19T04:44:15;7.20;99.90
48946;DHT22;34999;50.940;3.998;2023-05-19T04:46:44;7.20;99.90
48946;DHT22;34999;50.940;3.998;2023-05-19T04:49:12;7.30;99.90
48946;DHT22;34999;50.940;3.998;2023-05-19T04:51:42;7.40;99.90
48946;DHT22;34999;50.940;3.998;2023-05-19T04:54:11;7.40;99.90
48946;DHT22;34999;50.940;3.998;2023-05-19T04:56:40;7.40;99.90
48946;DHT22;34999;50.940;3.998;2023-05-19T04:59:09;7.50;99.90
48946;DHT22;34999;50.940;3.998;2023-05-19T05:01:37;7.60;99.90
48946;DHT22;34999;50.940;3.998;2023-05-19T05:04:06;7.70;99.90
48946;DHT22;34999;50.940;3.998;2023-05-19T05:06:35;7.80;99.90
48946;DHT22;34999;50.940;3.998;2023-05-19T05:09:07;7.90;99.90
48946;DHT22;34999;50.940;3.998;2023-05-19T05:11:36;8.00;99.90
48946;DHT22;34999;50.940;3.998;2023-05-19T05:14:05;8.00;99.90
48946;DHT22;34999;50.940;3.998;2023-05-19T05:16:34;8.10;99.90
48946;DHT22;34999;50.940;3.998;2023-05-19T05:19:03;8.30;99.90
48946;DHT22;34999;50.940;3.998;2023-05-19T05:21:31;8.40;99.90
48946;DHT22;34999;50.940;3.998;2023-05-19T05:24:00;8.40;99.90
48946;DHT22;34999;50.940;3.998;2023-05-19T05:26:32;8.60;99.90
48946;DHT22;34999;50.940;3.998;2023-05-19T05:29:01;8.70;99.90
48946;DHT22;34999;50.940;3.998;2023-05-19T05:31:29;8.80;99.90
48946;DHT22;34999;50.940;3.998;2023-05-19T05:33:58;8.90;99.90
48946;DHT22;34999;50.940;3.998;2023-05-19T05:36:27;9.00;99.90
48946;DHT22;34999;50.940;3.998;2023-05-19T05:38:56;9.10;99.90
48946;DHT22;34999;50.940;3.998;2023-05-19T05:41:25;9.20;99.90
48946;DHT22;34999;50.940;3.998;2023-05-19T05:43:56;9.30;99.10
48946;DHT22;34999;50.940;3.998;2023-05-19T05:46:24;9.50;98.00
48946;DHT22;34999;50.940;3.998;2023-05-19T05:48:53;9.50;92.20
48946;DHT22;34999;50.940;3.998;2023-05-19T05:51:22;9.60;93.20
48946;DHT22;34999;50.940;3.998;2023-05-19T05:53:53;9.70;94.70
48946;DHT22;34999;50.940;3.998;2023-05-19T05:56:22;9.80;89.70
48946;DHT22;34999;50.940;3.998;2023-05-19T05:58:50;9.90;92.80
48946;DHT22;34999;50.940;3.998;2023-05-19T06:01:21;10.00;97.60
48946;DHT22;34999;50.940;3.998;2023-05-19T06:03:50;10.10;94.20
48946;DHT22;34999;50.940;3.998;2023-05-19T06:06:18;10.20;98.40
48946;DHT22;34999;50.940;3.998;2023-05-19T06:08:46;10.30;99.90
48946;DHT22;34999;50.940;3.998;2023-05-19T06:11:15;10.40;99.90
48946;DHT22;34999;50.940;3.998;2023-05-19T06:13:43;10.50;99.90
48946;DHT22;34999;50.940;3.998;2023-05-19T06:16:12;10.50;99.90
48946;DHT22;34999;50.940;3.998;2023-05-19T06:18:41;10.60;99.90
48946;DHT22;34999;50.940;3.998;2023-05-19T06:21:09;10.70;99.90
48946;DHT22;34999;50.940;3.998;2023-05-19T06:23:39;10.90;99.90
48946;DHT22;34999;50.940;3.998;2023-05-19T06:26:08;11.00;99.90
48946;DHT22;34999;50.940;3.998;2023-05-19T06:28:36;11.30;93.60
48946;DHT22;34999;50.940;3.998;2023-05-19T06:31:04;11.40;99.90
48946;DHT22;34999;50.940;3.998;2023-05-19T06:33:32;11.60;99.90
48946;DHT22;34999;50.940;3.998;2023-05-19T06:36:02;11.80;99.90
48946;DHT22;34999;50.940;3.998;2023-05-19T06:38:31;11.90;99.90
48946;DHT22;34999;50.940;3.998;2023-05-19T06:40:59;12.00;99.90
48946;DHT22;34999;50.940;3.998;2023-05-19T06:43:27;12.00;1.00
48946;DHT22;34999;50.940;3.998;2023-05-19T06:45:56;12.20;1.00
48946;DHT22;34999;50.940;3.998;2023-05-19T06:48:24;12.40;1.00
48946;DHT22;34999;50.940;3.998;2023-05-19T06:50:52;12.50;1.00
48946;DHT22;34999;50.940;3.998;2023-05-19T06:53:23;12.60;1.00
48946;DHT22;34999;50.940;3.998;2023-05-19T06:55:51;12.60;1.00
48946;DHT22;34999;50.940;3.998;2023-05-19T06:58:26;12.60;1.00
48946;DHT22;34999;50.940;3.998;2023-05-19T07:00:54;12.70;1.00
48946;DHT22;34999;50.940;3.998;2023-05-19T07:03:22;13.00;1.00
48946;DHT22;34999;50.940;3.998;2023-05-19T07:05:50;13.10;1.00
48946;DHT22;34999;50.940;3.998;2023-05-19T07:08:19;13.30;1.00
48946;DHT22;34999;50.940;3.998;2023-05-19T07:10:48;13.60;1.00
48946;DHT22;34999;50.940;3.998;2023-05-19T07:13:18;13.60;1.00
48946;DHT22;34999;50.940;3.998;2023-05-19T07:15:46;13.60;1.00
48946;DHT22;34999;50.940;3.998;2023-05-19T07:18:14;13.70;1.00
48946;DHT22;34999;50.940;3.998;2023-05-19T07:20:43;13.90;1.00
48946;DHT22;34999;50.940;3.998;2023-05-19T07:23:11;13.90;1.00
48946;DHT22;34999;50.940;3.998;2023-05-19T07:25:43;14.10;1.00
48946;DHT22;34999;50.940;3.998;2023-05-19T07:28:13;14.20;1.00
48946;DHT22;34999;50.940;3.998;2023-05-19T07:30:41;14.30;1.00
48946;DHT22;34999;50.940;3.998;2023-05-19T07:33:09;14.30;1.00
48946;DHT22;34999;50.940;3.998;2023-05-19T07:35:38;14.40;1.00
48946;DHT22;34999;50.940;3.998;2023-05-19T07:38:07;14.40;1.00
48946;DHT22;34999;50.940;3.998;2023-05-19T07:40:36;14.40;1.00
48946;DHT22;34999;50.940;3.998;2023-05-19T07:43:04;14.30;1.00
48946;DHT22;34999;50.940;3.998;2023-05-19T07:45:35;14.40;1.00
48946;DHT22;34999;50.940;3.998;2023-05-19T07:48:03;14.50;1.00
48946;DHT22;34999;50.940;3.998;2023-05-19T07:50:32;14.70;1.00
48946;DHT22;34999;50.940;3.998;2023-05-19T07:53:00;15.00;99.90
48946;DHT22;34999;50.940;3.998;2023-05-19T07:55:29;15.30;99.90
48946;DHT22;34999;50.940;3.998;2023-05-19T07:57:58;15.60;99.90
48946;DHT22;34999;50.940;3.998;2023-05-19T08:00:26;15.60;99.90
48946;DHT22;34999;50.940;3.998;2023-05-19T08:02:56;15.60;99.90
48946;DHT22;34999;50.940;3.998;2023-05-19T08:05:24;15.70;99.90
48946;DHT22;34999;50.940;3.998;2023-05-19T08:07:53;15.90;99.90
48946;DHT22;34999;50.940;3.998;2023-05-19T08:10:21;16.30;1.00
48946;DHT22;34999;50.940;3.998;2023-05-19T08:12:50;16.50;1.00
48946;DHT22;34999;50.940;3.998;2023-05-19T08:15:18;16.80;1.00
48946;DHT22;34999;50.940;3.998;2023-05-19T08:17:46;16.90;1.00
48946;DHT22;34999;50.940;3.998;2023-05-19T08:20:17;16.90;1.00
48946;DHT22;34999;50.940;3.998;2023-05-19T08:22:48;16.90;1.00
48946;DHT22;34999;50.940;3.998;2023-05-19T08:25:16;17.00;1.00
48946;DHT22;34999;50.940;3.998;2023-05-19T08:27:45;17.00;1.00
48946;DHT22;34999;50.940;3.998;2023-05-19T08:30:13;17.40;1.00
48946;DHT22;34999;50.940;3.998;2023-05-19T08:32:42;17.80;1.00
48946;DHT22;34999;50.940;3.998;2023-05-19T08:35:10;17.90;1.00
48946;DHT22;34999;50.940;3.998;2023-05-19T08:37:40;17.80;99.90
48946;DHT22;34999;50.940;3.998;2023-05-19T08:40:14;17.90;1.00
48946;DHT22;34999;50.940;3.998;2023-05-19T08:42:43;18.10;1.00
48946;DHT22;34999;50.940;3.998;2023-05-19T08:45:11;18.50;99.90
48946;DHT22;34999;50.940;3.998;2023-05-19T08:47:40;18.60;1.00
48946;DHT22;34999;50.940;3.998;2023-05-19T08:50:10;18.80;23.50
48946;DHT22;34999;50.940;3.998;2023-05-19T08:52:51;19.00;1.00
48946;DHT22;34999;50.940;3.998;2023-05-19T08:55:28;19.20;1.00
48946;DHT22;34999;50.940;3.998;2023-05-19T08:58:03;19.40;1.00
48946;DHT22;34999;50.940;3.998;2023-05-19T09:00:31;19.90;1.00
48946;DHT22;34999;50.940;3.998;2023-05-19T09:03:01;20.30;1.00
48946;DHT22;34999;50.940;3.998;2023-05-19T09:05:44;20.70;1.00
48946;DHT22;34999;50.940;3.998;2023-05-19T09:08:14;21.20;1.00
48946;DHT22;34999;50.940;3.998;2023-05-19T09:10:42;21.10;1.00
48946;DHT22;34999;50.940;3.998;2023-05-19T09:13:10;21.00;1.00
48946;DHT22;34999;50.940;3.998;2023-05-19T09:15:39;21.10;1.00
48946;DHT22;34999;50.940;3.998;2023-05-19T09:18:12;21.90;99.90
48946;DHT22;34999;50.940;3.998;2023-05-19T09:20:42;22.50;1.00
48946;DHT22;34999;50.940;3.998;2023-05-19T09:23:16;22.40;99.90
48946;DHT22;34999;50.940;3.998;2023-05-19T09:25:47;22.40;99.90
48946;DHT22;34999;50.940;3.998;2023-05-19T09:28:22;22.50;99.90
48946;DHT22;34999;50.940;3.998;2023-05-19T09:31:01;22.30;99.90
48946;DHT22;34999;50.940;3.998;2023-05-19T09:33:35;22.90;1.00
48946;DHT22;34999;50.940;3.998;2023-05-19T09:36:06;23.60;1.00
48946;DHT22;34999;50.940;3.998;2023-05-19T09:38:38;23.40;99.90
48946;DHT22;34999;50.940;3.998;2023-05-19T09:41:07;23.60;99.90
48946;DHT22;34999;50.940;3.998;2023-05-19T09:43:35;23.60;99.90
48946;DHT22;34999;50.940;3.998;2023-05-19T09:46:05;23.50;99.90
48946;DHT22;34999;50.940;3.998;2023-05-19T09:48:34;23.70;99.90
48946;DHT22;34999;50.940;3.998;2023-05-19T09:51:04;23.70;14.10
48946;DHT22;34999;50.940;3.998;2023-05-19T09:53:34;23.60;64.60
48946;DHT22;34999;50.940;3.998;2023-05-19T09:56:04;23.60;1.00
48946;DHT22;34999;50.940;3.998;2023-05-19T09:58:33;23.50;1.00
48946;DHT22;34999;50.940;3.998;2023-05-19T10:01:03;23.40;1.00
48946;DHT22;34999;50.940;3.998;2023-05-19T10:03:33;23.60;1.00
48946;DHT22;34999;50.940;3.998;2023-05-19T10:06:01;23.70;1.00
48946;DHT22;34999;50.940;3.998;2023-05-19T10:08:32;24.00;86.90
48946;DHT22;34999;50.940;3.998;2023-05-19T10:11:04;24.30;1.00
48946;DHT22;34999;50.940;3.998;2023-05-19T10:13:34;24.60;1.00
48946;DHT22;34999;50.940;3.998;2023-05-19T10:16:05;23.90;1.00
48946;DHT22;34999;50.940;3.998;2023-05-19T10:18:34;23.00;1.00
48946;DHT22;34999;50.940;3.998;2023-05-19T10:21:07;23.20;1.00
48946;DHT22;34999;50.940;3.998;2023-05-19T10:23:36;23.50;1.00
48946;DHT22;34999;50.940;3.998;2023-05-19T10:26:06;23.70;1.00
48946;DHT22;34999;50.940;3.998;2023-05-19T10:28:38;23.90;1.00
48946;DHT22;34999;50.940;3.998;2023-05-19T10:31:11;23.70;1.00
48946;DHT22;34999;50.940;3.998;2023-05-19T10:33:52;22.70;1.00
48946;DHT22;34999;50.940;3.998;2023-05-19T10:36:33;22.80;1.00
48946;DHT22;34999;50.940;3.998;2023-05-19T10:39:10;23.60;1.00
48946;DHT22;34999;50.940;3.998;2023-05-19T10:41:47;24.10;1.00
48946;DHT22;34999;50.940;3.998;2023-05-19T10:44:27;23.80;1.00
48946;DHT22;34999;50.940;3.998;2023-05-19T10:46:58;23.20;1.00
48946;DHT22;34999;50.940;3.998;2023-05-19T10:49:45;22.60;1.00
48946;DHT22;34999;50.940;3.998;2023-05-19T10:52:21;22.20;1.00
48946;DHT22;34999;50.940;3.998;2023-05-19T10:54:52;21.70;1.00
48946;DHT22;34999;50.940;3.998;2023-05-19T10:57:26;21.10;1.00
48946;DHT22;34999;50.940;3.998;2023-05-19T11:00:02;21.40;1.00
48946;DHT22;34999;50.940;3.998;2023-05-19T11:02:39;21.90;1.00
48946;DHT22;34999;50.940;3.998;2023-05-19T11:05:10;22.30;99.90
48946;DHT22;34999;50.940;3.998;2023-05-19T11:07:40;22.50;1.00
48946;DHT22;34999;50.940;3.998;2023-05-19T11:10:10;22.70;1.00
48946;DHT22;34999;50.940;3.998;2023-05-19T11:12:42;22.70;99.90
48946;DHT22;34999;50.940;3.998;2023-05-19T11:15:11;22.70;1.00
48946;DHT22;34999;50.940;3.998;2023-05-19T11:17:47;22.90;1.00
48946;DHT22;34999;50.940;3.998;2023-05-19T11:20:22;23.20;1.00
48946;DHT22;34999;50.940;3.998;2023-05-19T11:25:50;22.40;1.00
48946;DHT22;34999;50.940;3.998;2023-05-19T11:32:06;21.20;1.00
48946;DHT22;34999;50.940;3.998;2023-05-19T11:34:37;21.80;1.00
48946;DHT22;34999;50.940;3.998;2023-05-19T11:37:06;22.00;1.00
48946;DHT22;34999;50.940;3.998;2023-05-19T11:46:40;23.20;1.00
48946;DHT22;34999;50.940;3.998;2023-05-19T11:52:52;23.00;99.90
48946;DHT22;34999;50.940;3.998;2023-05-19T11:59:02;22.40;99.90
48946;DHT22;34999;50.940;3.998;2023-05-19T12:01:31;22.20;99.90
48946;DHT22;34999;50.940;3.998;2023-05-19T12:04:00;22.20;1.00
48946;DHT22;34999;50.940;3.998;2023-05-19T12:06:29;22.30;1.00
48946;DHT22;34999;50.940;3.998;2023-05-19T12:08:59;22.10;1.00
48946;DHT22;34999;50.940;3.998;2023-05-19T12:11:30;22.30;1.00
48946;DHT22;34999;50.940;3.998;2023-05-19T12:14:00;22.50;1.00
48946;DHT22;34999;50.940;3.998;2023-05-19T12:20:11;22.40;1.00
48946;DHT22;34999;50.940;3.998;2023-05-19T12:22:41;22.70;1.00
48946;DHT22;34999;50.940;3.998;2023-05-19T12:28:54;22.30;99.90
48946;DHT22;34999;50.940;3.998;2023-05-19T12:31:23;21.70;1.00
48946;DHT22;34999;50.940;3.998;2023-05-19T12:33:52;21.70;99.90
48946;DHT22;34999;50.940;3.998;2023-05-19T12:40:03;21.70;1.00
48946;DHT22;34999;50.940;3.998;2023-05-19T12:45:40;21.70;1.00
48946;DHT22;34999;50.940;3.998;2023-05-19T12:48:13;21.70;1.00
48946;DHT22;34999;50.940;3.998;2023-05-19T12:50:43;21.70;1.00
48946;DHT22;34999;50.940;3.998;2023-05-19T12:53:12;21.40;99.90
48946;DHT22;34999;50.940;3.998;2023-05-19T12:55:42;21.40;1.00
48946;DHT22;34999;50.940;3.998;2023-05-19T13:01:57;21.30;99.90
48946;DHT22;34999;50.940;3.998;2023-05-19T13:08:08;21.30;1.00
48946;DHT22;34999;50.940;3.998;2023-05-19T13:14:18;21.70;1.00
48946;DHT22;34999;50.940;3.998;2023-05-19T13:20:47;22.00;99.90
48946;DHT22;34999;50.940;3.998;2023-05-19T13:23:19;21.90;1.00
48946;DHT22;34999;50.940;3.998;2023-05-19T13:29:28;22.10;1.00
48946;DHT22;34999;50.940;3.998;2023-05-19T13:31:57;22.30;1.00
48946;DHT22;34999;50.940;3.998;2023-05-19T13:34:27;22.50;1.00
48946;DHT22;34999;50.940;3.998;2023-05-19T13:36:57;22.70;1.00
48946;DHT22;34999;50.940;3.998;2023-05-19T13:43:07;22.90;1.00
48946;DHT22;34999;50.940;3.998;2023-05-19T13:45:36;22.90;1.00
48946;DHT22;34999;50.940;3.998;2023-05-19T13:48:14;23.00;99.90
48946;DHT22;34999;50.940;3.998;2023-05-19T13:50:43;23.00;99.90
48946;DHT22;34999;50.940;3.998;2023-05-19T13:53:15;22.70;1.00
48946;DHT22;34999;50.940;3.998;2023-05-19T13:56:09;22.70;1.00
48946;DHT22;34999;50.940;3.998;2023-05-19T13:58:37;22.40;58.80
48946;DHT22;34999;50.940;3.998;2023-05-19T14:01:05;22.20;1.00
48946;DHT22;34999;50.940;3.998;2023-05-19T14:03:33;22.10;99.90
48946;DHT22;34999;50.940;3.998;2023-05-19T14:06:03;22.30;99.90
48946;DHT22;34999;50.940;3.998;2023-05-19T14:08:32;22.40;26.00
48946;DHT22;34999;50.940;3.998;2023-05-19T14:11:01;22.60;99.90
48946;DHT22;34999;50.940;3.998;2023-05-19T14:13:29;22.70;99.90
48946;DHT22;34999;50.940;3.998;2023-05-19T14:16:02;23.00;1.00
48946;DHT22;34999;50.940;3.998;2023-05-19T14:18:30;23.40;1.00
48946;DHT22;34999;50.940;3.998;2023-05-19T14:20:59;23.50;18.90
48946;DHT22;34999;50.940;3.998;2023-05-19T14:23:27;23.30;1.00
48946;DHT22;34999;50.940;3.998;2023-05-19T14:25:57;23.20;1.00
48946;DHT22;34999;50.940;3.998;2023-05-19T14:28:25;23.20;4.00
48946;DHT22;34999;50.940;3.998;2023-05-19T14:30:54;23.50;1.00
48946;DHT22;34999;50.940;3.998;2023-05-19T14:33:22;23.80;99.90
48946;DHT22;34999;50.940;3.998;2023-05-19T14:35:51;24.20;1.00
48946;DHT22;34999;50.940;3.998;2023-05-19T14:38:20;24.30;99.90
48946;DHT22;34999;50.940;3.998;2023-05-19T14:40:48;24.30;99.90
48946;DHT22;34999;50.940;3.998;2023-05-19T14:43:17;24.40;99.90
48946;DHT22;34999;50.940;3.998;2023-05-19T14:45:46;24.50;1.00
48946;DHT22;34999;50.940;3.998;2023-05-19T14:48:14;24.40;1.00
48946;DHT22;34999;50.940;3.998;2023-05-19T14:50:42;24.50;99.90
48946;DHT22;34999;50.940;3.998;2023-05-19T14:53:11;23.90;1.00
48946;DHT22;34999;50.940;3.998;2023-05-19T14:55:39;23.30;1.00
48946;DHT22;34999;50.940;3.998;2023-05-19T14:58:08;23.20;99.90
48946;DHT22;34999;50.940;3.998;2023-05-19T15:00:57;23.60;7.70
48946;DHT22;34999;50.940;3.998;2023-05-19T15:03:26;23.70;99.90
48946;DHT22;34999;50.940;3.998;2023-05-19T15:05:54;24.00;10.30
48946;DHT22;34999;50.940;3.998;2023-05-19T15:08:22;24.50;1.00
48946;DHT22;34999;50.940;3.998;2023-05-19T15:10:51;24.30;1.00
48946;DHT22;34999;50.940;3.998;2023-05-19T15:13:19;24.10;1.00
48946;DHT22;34999;50.940;3.998;2023-05-19T15:15:47;24.30;1.00
48946;DHT22;34999;50.940;3.998;2023-05-19T15:18:17;24.50;1.00
48946;DHT22;34999;50.940;3.998;2023-05-19T15:20:45;24.40;1.00
48946;DHT22;34999;50.940;3.998;2023-05-19T15:23:13;24.30;1.00
48946;DHT22;34999;50.940;3.998;2023-05-19T15:25:41;23.90;1.00
48946;DHT22;34999;50.940;3.998;2023-05-19T15:28:11;23.30;1.00
48946;DHT22;34999;50.940;3.998;2023-05-19T15:30:40;23.20;99.90
48946;DHT22;34999;50.940;3.998;2023-05-19T15:33:09;23.20;1.00
48946;DHT22;34999;50.940;3.998;2023-05-19T15:35:39;23.50;92.70
48946;DHT22;34999;50.940;3.998;2023-05-19T15:38:07;23.90;1.00
48946;DHT22;34999;50.940;3.998;2023-05-19T15:40:36;24.30;1.00
48946;DHT22;34999;50.940;3.998;2023-05-19T15:43:04;24.60;79.80
48946;DHT22;34999;50.940;3.998;2023-05-19T15:45:32;24.70;1.00
48946;DHT22;34999;50.940;3.998;2023-05-19T15:48:00;24.90;1.00
48946;DHT22;34999;50.940;3.998;2023-05-19T15:50:29;24.70;1.00
48946;DHT22;34999;50.940;3.998;2023-05-19T15:52:58;24.40;1.00
48946;DHT22;34999;50.940;3.998;2023-05-19T15:55:27;24.10;1.00
48946;DHT22;34999;50.940;3.998;2023-05-19T15:57:55;23.80;1.00
48946;DHT22;34999;50.940;3.998;2023-05-19T16:00:23;23.50;1.00
48946;DHT22;34999;50.940;3.998;2023-05-19T16:02:51;23.70;1.00
48946;DHT22;34999;50.940;3.998;2023-05-19T16:05:20;24.00;1.00
48946;DHT22;34999;50.940;3.998;2023-05-19T16:07:48;24.10;1.00
48946;DHT22;34999;50.940;3.998;2023-05-19T16:10:17;24.10;1.00
48946;DHT22;34999;50.940;3.998;2023-05-19T16:12:46;23.80;1.00
48946;DHT22;34999;50.940;3.998;2023-05-19T16:15:14;23.90;96.30
48946;DHT22;34999;50.940;3.998;2023-05-19T16:17:42;24.00;1.00
48946;DHT22;34999;50.940;3.998;2023-05-19T16:20:11;24.20;1.00
48946;DHT22;34999;50.940;3.998;2023-05-19T16:22:39;24.30;1.00
48946;DHT22;34999;50.940;3.998;2023-05-19T16:25:08;24.20;1.00
48946;DHT22;34999;50.940;3.998;2023-05-19T16:27:38;24.10;1.00
48946;DHT22;34999;50.940;3.998;2023-05-19T16:30:07;23.70;1.00
48946;DHT22;34999;50.940;3.998;2023-05-19T16:32:35;23.20;1.00
48946;DHT22;34999;50.940;3.998;2023-05-19T16:35:05;22.80;1.00
48946;DHT22;34999;50.940;3.998;2023-05-19T16:37:33;23.00;34.90
48946;DHT22;34999;50.940;3.998;2023-05-19T16:40:02;23.30;1.00
48946;DHT22;34999;50.940;3.998;2023-05-19T16:42:31;23.40;44.70
48946;DHT22;34999;50.940;3.998;2023-05-19T16:45:00;23.50;1.00
48946;DHT22;34999;50.940;3.998;2023-05-19T16:47:28;23.50;1.00
48946;DHT22;34999;50.940;3.998;2023-05-19T16:49:57;23.40;1.00
48946;DHT22;34999;50.940;3.998;2023-05-19T16:52:25;23.40;1.00
48946;DHT22;34999;50.940;3.998;2023-05-19T16:54:53;23.00;1.00
48946;DHT22;34999;50.940;3.998;2023-05-19T16:57:22;22.60;1.00
48946;DHT22;34999;50.940;3.998;2023-05-19T16:59:50;22.60;1.00
48946;DHT22;34999;50.940;3.998;2023-05-19T17:02:19;22.80;1.00